Time;durP1;ratioP1;P1;durP2;ratioP2;P2;SDS_P1;SDS_P2;PMS_P1;PMS_P2;Temp;Humidity;BMP_temperature;BMP_pressure;BME280_temperature;BME280_humidity;BME280_pressure;Samples;Min_cycle;Max_cycle;Signal;HPM_P1;HPM_P2
2022/05/09 04:01:19;;;;;;;10.90;9.40;;;;;;;15.36;84.02;101201.16;5605394;31;78394;-59
2022/05/09 04:04:22;;;;;;;12.70;9.40;;;;;;;15.36;84.02;101201.16;5583719;31;33632;-60
2022/05/09 04:07:24;;;;;;;14.18;9.45;;;;;;;14.83;81.02;101205.91;5583798;31;34246;-60
2022/05/09 04:10:33;;;;;;;15.05;9.52;;;;;;;15.04;80.08;101194.59;5583759;31;34053;-60
2022/05/09 04:13:35;;;;;;;13.57;9.80;;;;;;;15.08;84.12;101207.50;5583839;31;34130;-58
2022/05/09 04:16:50;;;;;;;12.32;9.27;;;;;;;15.21;83.06;101201.38;5583657;32;34178;-59
2022/05/09 04:19:52;;;;;;;11.23;9.05;;;;;;;15.21;83.22;101201.38;5583720;31;34178;-60
2022/05/09 04:22:54;;;;;;;10.73;9.55;;;;;;;15.23;80.63;101201.88;5583401;32;33667;-59
2022/05/09 04:25:56;;;;;;;12.37;9.35;;;;;;;15.51;80.70;101206.34;5583479;32;33553;-60
2022/05/09 04:29:00;;;;;;;9.95;8.85;;;;;;;15.62;80.88;101209.69;5566314;32;33635;-59
2022/05/09 04:32:03;;;;;;;13.65;9.02;;;;;;;15.65;85.07;101217.22;5563900;32;33644;-60
2022/05/09 04:35:06;;;;;;;10.55;8.98;;;;;;;15.74;81.21;101207.38;5564161;32;33274;-60
2022/05/09 04:38:23;;;;;;;10.70;8.68;;;;;;;16.01;79.84;101213.19;5563744;32;33759;-59
2022/05/09 04:41:26;;;;;;;11.68;9.20;;;;;;;16.13;82.06;101208.91;5563544;32;34294;-60
2022/05/09 04:44:28;;;;;;;12.88;9.40;;;;;;;16.24;79.07;101214.16;5563666;32;33674;-60
2022/05/09 04:47:31;;;;;;;13.60;9.20;;;;;;;16.35;78.67;101215.56;5566711;32;34309;-60
2022/05/09 04:50:34;;;;;;;11.12;9.02;;;;;;;16.46;79.48;101214.28;5577975;31;33700;-60
2022/05/09 04:53:37;;;;;;;10.85;9.13;;;;;;;16.58;79.82;101219.19;5581713;32;33563;-59
2022/05/09 04:56:39;;;;;;;11.70;8.18;;;;;;;16.69;79.54;101212.50;5582500;32;31926;-60
2022/05/09 04:59:45;;;;;;;10.35;8.50;;;;;;;16.71;78.80;101223.81;5580528;32;33641;-60
2022/05/09 05:02:48;;;;;;;10.38;8.70;;;;;;;16.84;78.60;101223.03;5578956;32;33591;-59
2022/05/09 05:05:54;;;;;;;11.43;7.60;;;;;;;16.84;78.94;101223.03;5581035;32;33606;-59
2022/05/09 05:08:56;;;;;;;12.35;7.72;;;;;;;16.95;78.30;101228.25;5581770;32;33933;-59
2022/05/09 05:11:59;;;;;;;8.68;7.45;;;;;;;16.97;76.71;101226.06;5571491;32;33607;-59
2022/05/09 05:15:01;;;;;;;9.38;7.25;;;;;;;16.95;75.20;101228.25;5562402;32;33187;-60
2022/05/09 05:18:04;;;;;;;9.95;6.80;;;;;;;17.06;75.00;101229.66;5560727;32;34441;-59
2022/05/09 05:21:11;;;;;;;8.48;6.60;;;;;;;17.20;77.73;101233.16;5567141;32;33345;-60
2022/05/09 05:24:13;;;;;;;9.82;6.60;;;;;;;17.17;72.56;101232.94;5567094;32;33571;-60
2022/05/09 05:27:15;;;;;;;15.18;7.18;;;;;;;17.14;73.03;101237.84;5567744;32;33640;-60
2022/05/09 05:30:20;;;;;;;9.15;6.75;;;;;;;17.18;73.38;101237.25;5565071;32;33729;-60
2022/05/09 05:33:22;;;;;;;8.80;6.18;;;;;;;17.10;74.92;101239.56;5567821;32;33670;-59
2022/05/09 05:36:24;;;;;;;8.93;6.93;;;;;;;17.14;75.28;101242.47;5567139;32;33641;-60
2022/05/09 05:39:26;;;;;;;10.57;7.03;;;;;;;17.14;75.79;101247.91;5566037;32;33531;-60
2022/05/09 05:42:29;;;;;;;8.43;7.47;;;;;;;17.15;76.36;101241.38;5565222;32;33765;-59
2022/05/09 05:45:31;;;;;;;10.52;7.43;;;;;;;17.23;75.60;101248.00;5559559;32;34314;-60
2022/05/09 05:48:34;;;;;;;8.88;7.10;;;;;;;17.29;75.51;101252.22;5567432;32;33752;-60
2022/05/09 05:51:36;;;;;;;13.70;7.28;;;;;;;17.27;75.44;101259.81;5567082;32;33676;-59
2022/05/09 05:54:44;;;;;;;7.40;5.55;;;;;;;17.30;73.65;101253.81;5567885;32;33707;-59
2022/05/09 05:57:47;;;;;;;11.60;7.40;;;;;;;17.41;68.20;101257.09;5567155;32;33893;-60
2022/05/09 06:00:49;;;;;;;6.85;6.15;;;;;;;17.49;74.36;101259.09;5567159;32;33662;-60
2022/05/09 06:03:54;;;;;;;9.73;6.28;;;;;;;17.61;69.80;101252.03;5567359;32;33600;-60
2022/05/09 06:06:56;;;;;;;7.03;6.15;;;;;;;17.66;75.25;101259.25;5568103;32;33687;-60
2022/05/09 06:09:58;;;;;;;8.50;7.12;;;;;;;17.66;72.04;101270.09;5569318;32;33687;-59
2022/05/09 06:13:03;;;;;;;8.45;6.22;;;;;;;17.78;72.46;101267.66;5567838;32;34246;-60
2022/05/09 06:16:05;;;;;;;9.77;6.28;;;;;;;17.86;72.66;101270.75;5566198;32;32392;-59
2022/05/09 06:19:12;;;;;;;7.60;6.32;;;;;;;17.88;74.94;101271.22;5568334;32;33362;-59
2022/05/09 06:22:15;;;;;;;7.80;6.10;;;;;;;17.94;71.99;101268.09;5567668;32;33758;-60
2022/05/09 06:25:19;;;;;;;10.27;5.75;;;;;;;18.03;71.99;101268.97;5568890;32;34258;-59
2022/05/09 06:28:22;;;;;;;15.45;5.40;;;;;;;18.15;67.91;101267.63;5567547;32;34133;-60
2022/05/09 06:31:25;;;;;;;9.45;5.37;;;;;;;18.26;68.91;101269.75;5566681;32;33658;-59
2022/05/09 06:34:28;;;;;;;7.62;5.90;;;;;;;18.47;64.68;101271.94;5562477;32;33549;-59
2022/05/09 06:37:32;;;;;;;6.00;4.97;;;;;;;18.51;65.72;101281.09;5565727;32;33630;-59
2022/05/09 06:40:38;;;;;;;7.40;4.78;;;;;;;18.52;59.80;101279.97;5567032;32;33718;-59
2022/05/09 06:43:42;;;;;;;12.37;5.10;;;;;;;18.62;62.56;101274.25;5565040;32;33880;-59
2022/05/09 06:46:44;;;;;;;5.32;4.53;;;;;;;18.81;60.33;101282.22;5565550;32;33196;-59
2022/05/09 06:49:47;;;;;;;6.25;4.80;;;;;;;18.85;59.18;101276.94;5561133;32;33585;-59
2022/05/09 06:52:49;;;;;;;10.32;4.93;;;;;;;18.94;58.19;101284.00;5559022;32;33738;-59
2022/05/09 06:56:12;;;;;;;5.40;4.85;;;;;;;18.91;57.67;101281.13;5560927;32;34177;-59
2022/05/09 06:59:16;;;;;;;6.50;5.12;;;;;;;19.04;62.71;101280.22;5561058;32;33065;-59
2022/05/09 07:02:18;;;;;;;10.50;5.22;;;;;;;19.15;58.47;101284.22;5555590;32;34352;-59
2022/05/09 07:05:21;;;;;;;8.45;5.97;;;;;;;19.16;56.98;101283.09;5565610;32;33612;-59
2022/05/09 07:08:32;;;;;;;6.70;5.63;;;;;;;19.21;58.16;101282.97;5565511;32;34350;-58
2022/05/09 07:11:34;;;;;;;7.78;5.10;;;;;;;19.38;55.89;101284.91;5562879;32;33228;-59
2022/05/09 07:14:36;;;;;;;9.20;5.55;;;;;;;19.37;58.33;101285.22;5565605;32;34244;-59
2022/05/09 07:17:39;;;;;;;10.32;5.75;;;;;;;19.41;54.78;101288.94;5564474;32;34379;-59
2022/05/09 07:20:41;;;;;;;11.07;5.50;;;;;;;19.37;55.86;101296.91;5564472;32;33420;-59
2022/05/09 07:23:43;;;;;;;7.68;5.45;;;;;;;19.43;55.08;101292.91;5561204;32;34273;-59
2022/05/09 07:26:46;;;;;;;9.65;5.85;;;;;;;19.54;55.54;101296.16;5557534;32;34265;-59
2022/05/09 07:29:48;;;;;;;9.15;5.62;;;;;;;19.61;58.14;101298.41;5558081;32;33695;-59
2022/05/09 07:32:51;;;;;;;9.75;6.20;;;;;;;19.66;54.83;101304.50;5558368;32;33723;-59
2022/05/09 07:35:54;;;;;;;12.15;6.40;;;;;;;19.68;58.06;101301.47;5557832;32;33811;-59
2022/05/09 07:38:56;;;;;;;9.63;6.25;;;;;;;19.63;61.45;101305.13;5564174;32;33749;-59
2022/05/09 07:41:59;;;;;;;8.95;6.20;;;;;;;19.60;62.42;101305.75;5559355;32;33770;-59
2022/05/09 07:45:03;;;;;;;9.57;6.05;;;;;;;19.57;63.30;101305.56;5558948;32;34406;-60
2022/05/09 07:48:07;;;;;;;15.43;6.03;;;;;;;19.56;63.23;101301.25;5562593;32;33730;-59
2022/05/09 07:51:09;;;;;;;10.48;6.43;;;;;;;19.65;63.74;101310.25;5555692;32;33336;-60
2022/05/09 07:54:11;;;;;;;12.13;6.10;;;;;;;19.69;66.01;101313.94;5555997;32;33428;-59
2022/05/09 07:57:15;;;;;;;9.75;5.95;;;;;;;19.73;64.18;101309.44;5560584;32;33824;-59
2022/05/09 08:00:18;;;;;;;9.25;5.15;;;;;;;19.77;62.97;101310.44;5557564;32;33644;-59
2022/05/09 08:03:24;;;;;;;;;;;;;;;19.77;63.48;101306.88;5557248;32;35046;-59
2022/05/09 08:06:31;;;;;;;7.80;5.55;;;;;;;19.83;61.42;101308.34;5551434;32;33461;-59
2022/05/09 08:09:33;;;;;;;10.57;5.70;;;;;;;19.85;61.84;101306.09;5556733;32;35030;-59
2022/05/09 08:12:37;;;;;;;9.90;5.43;;;;;;;19.91;63.30;101300.19;5561033;32;33707;-59
2022/05/09 08:15:40;;;;;;;11.85;6.05;;;;;;;19.98;64.20;101307.87;5567737;32;33604;-59
2022/05/09 08:18:42;;;;;;;11.10;5.82;;;;;;;19.99;61.35;101312.19;5565868;32;33564;-59
2022/05/09 08:21:50;;;;;;;8.02;5.50;;;;;;;20.05;60.27;101297.28;5566585;32;34701;-59
2022/05/09 08:24:59;;;;;;;12.80;6.20;;;;;;;20.12;60.77;101303.03;5561842;32;34807;-59
2022/05/09 08:28:07;;;;;;;10.57;5.68;;;;;;;20.24;60.58;101309.78;5562338;32;34252;-58
2022/05/09 08:31:10;;;;;;;7.95;5.37;;;;;;;20.30;61.23;101303.03;5559820;32;33250;-59
2022/05/09 08:34:14;;;;;;;8.20;5.60;;;;;;;20.38;64.10;101296.75;5559052;32;34448;-59
2022/05/09 08:37:20;;;;;;;8.63;5.68;;;;;;;20.37;61.44;101300.63;5557323;32;34329;-58
2022/05/09 08:40:34;;;;;;;;;;;;;;;20.36;59.49;101297.09;5556009;32;33629;-58
2022/05/09 08:43:59;;;;;;;11.65;6.05;;;;;;;20.40;61.41;101302.69;5558129;32;33561;-59
2022/05/09 08:47:17;;;;;;;13.70;5.55;;;;;;;20.40;61.40;101303.50;5564960;32;33669;-59
2022/05/09 08:50:53;;;;;;;11.75;6.15;;;;;;;20.42;61.62;101303.94;5567493;32;33435;-59
2022/05/09 08:54:05;;;;;;;8.75;5.70;;;;;;;20.51;62.20;101292.28;5563966;32;34321;-59
2022/05/09 08:57:12;;;;;;;15.32;6.15;;;;;;;20.56;62.09;101295.63;5559235;32;33678;-59
2022/05/09 09:00:18;;;;;;;15.50;6.05;;;;;;;20.59;61.25;101297.69;5560918;32;33126;-58
2022/05/09 09:03:38;;;;;;;10.70;6.07;;;;;;;20.62;60.81;101298.97;5567271;32;33141;-58
2022/05/09 09:07:00;;;;;;;14.32;5.82;;;;;;;20.59;58.94;101300.41;5561122;32;33442;-60
2022/05/09 09:10:15;;;;;;;13.88;5.50;;;;;;;20.61;59.55;101302.81;5569760;32;33845;-59
2022/05/09 09:13:37;;;;;;;;;;;;;;;20.67;59.86;101306.97;5566949;32;34244;-59
2022/05/09 09:17:01;;;;;;;9.65;5.57;;;;;;;20.70;57.85;101302.81;5567499;32;33975;-59
2022/05/09 09:20:13;;;;;;;12.25;5.28;;;;;;;20.72;58.12;101303.25;5562828;32;33737;-59
2022/05/09 09:23:19;;;;;;;7.40;4.75;;;;;;;20.79;57.78;101295.38;5566074;32;33587;-60
2022/05/09 09:26:34;;;;;;;10.02;5.18;;;;;;;20.88;57.50;101299.66;5566829;31;33377;-59
2022/05/09 09:29:56;;;;;;;8.35;5.30;;;;;;;20.98;56.78;101293.03;5557083;32;33858;-59
2022/05/09 09:33:04;;;;;;;11.57;5.87;;;;;;;21.02;53.11;101291.25;5563309;32;33696;-59
2022/05/09 09:36:13;;;;;;;7.78;5.35;;;;;;;21.15;55.39;101294.87;5564490;32;34513;-60
2022/05/09 09:39:19;;;;;;;7.22;5.18;;;;;;;21.29;55.77;101294.63;5559353;32;33825;-59
2022/05/09 09:42:21;;;;;;;8.13;5.57;;;;;;;21.46;53.29;101288.31;5559559;32;33733;-59
2022/05/09 09:45:32;;;;;;;6.18;5.12;;;;;;;21.60;53.34;101282.59;5565362;32;33620;-59
2022/05/09 09:48:35;;;;;;;9.32;5.85;;;;;;;21.78;53.12;101278.59;5566112;32;33682;-58
2022/05/09 09:51:46;;;;;;;7.45;5.37;;;;;;;21.87;50.85;101282.03;5568086;32;33742;-59
2022/05/09 09:55:20;;;;;;;7.72;5.47;;;;;;;21.88;48.95;101282.84;5562463;32;34273;-60
2022/05/09 09:58:27;;;;;;;10.52;5.62;;;;;;;22.01;48.51;101279.81;5567949;32;33855;-59
2022/05/09 10:01:32;;;;;;;6.60;5.30;;;;;;;22.12;47.45;101268.47;5557986;32;33722;-58
2022/05/09 10:04:35;;;;;;;6.28;4.75;;;;;;;22.14;46.71;101264.28;5565602;32;33584;-58
2022/05/09 10:07:43;;;;;;;7.37;5.12;;;;;;;22.21;46.78;101261.03;5564529;32;33660;-59
2022/05/09 10:11:02;;;;;;;7.80;5.10;;;;;;;22.32;48.32;101258.66;5568223;32;33483;-59
2022/05/09 10:14:06;;;;;;;7.60;5.62;;;;;;;22.47;49.39;101258.00;5567567;32;34479;-60
2022/05/09 10:17:32;;;;;;;7.87;5.30;;;;;;;22.58;48.07;101261.09;5568354;32;33669;-59
2022/05/09 10:20:41;;;;;;;6.07;5.00;;;;;;;22.67;49.48;101250.84;5548813;32;33728;-59
2022/05/09 10:27:32;;;;;;;10.68;5.45;;;;;;;22.83;49.23;101242.78;5564853;32;33258;-59
2022/05/09 10:30:38;;;;;;;11.25;5.37;;;;;;;22.87;47.68;101246.41;5563818;32;33834;-59
2022/05/09 10:34:26;;;;;;;8.20;5.30;;;;;;;22.90;49.26;101243.00;5562978;32;34245;-59
2022/05/09 10:37:40;;;;;;;9.82;5.68;;;;;;;22.96;49.10;101244.41;5524203;32;34352;-59
2022/05/09 10:40:58;;;;;;;6.93;5.18;;;;;;;23.02;46.79;101240.28;5521932;32;31973;-60
2022/05/09 10:44:21;;;;;;;8.85;5.87;;;;;;;22.93;46.56;101239.59;5558981;32;34478;-59
2022/05/09 10:47:46;;;;;;;8.75;5.37;;;;;;;22.57;45.52;101234.91;5558749;32;34253;-59
2022/05/09 10:50:55;;;;;;;7.22;5.50;;;;;;;22.40;46.91;101239.44;5558572;32;33778;-59
2022/05/09 10:54:12;;;;;;;7.15;4.95;;;;;;;22.34;46.22;101243.53;5560003;32;33663;-60
2022/05/09 10:57:22;;;;;;;5.55;4.85;;;;;;;22.19;44.99;101238.75;5554808;32;34312;-59
2022/05/09 11:01:00;;;;;;;7.00;4.40;;;;;;;22.10;45.41;101240.72;5566695;32;34079;-59
2022/05/09 11:04:03;;;;;;;7.03;4.60;;;;;;;22.02;42.56;101243.22;5567225;31;33758;-59
2022/05/09 11:07:08;;;;;;;10.07;5.30;;;;;;;21.99;45.25;101241.16;5567221;32;33736;-59
2022/05/09 11:10:43;;;;;;;9.43;4.60;;;;;;;21.99;45.05;101232.16;5564917;31;31990;-59
2022/05/09 11:13:58;;;;;;;5.53;4.30;;;;;;;21.99;44.80;101232.97;5565821;32;34338;-59
2022/05/09 11:17:27;;;;;;;6.80;5.10;;;;;;;22.00;46.86;101231.03;5562210;32;33723;-60
2022/05/09 11:20:37;;;;;;;6.78;5.20;;;;;;;21.98;46.75;101234.06;5558297;31;33998;-60
2022/05/09 11:24:10;;;;;;;7.40;5.43;;;;;;;22.10;47.95;101225.12;5568008;31;32003;-59
2022/05/09 11:27:45;;;;;;;8.93;5.68;;;;;;;22.19;47.75;101228.59;5558588;32;34363;-60
2022/05/09 11:31:33;;;;;;;7.20;5.70;;;;;;;22.30;47.87;101223.50;5548952;32;34461;-60
2022/05/09 11:35:13;;;;;;;6.03;5.18;;;;;;;22.45;46.16;101222.84;5535511;32;34169;-60
2022/05/09 11:38:37;;;;;;;7.55;5.47;;;;;;;22.55;44.20;101202.47;5565636;32;33676;-59
2022/05/09 11:41:58;;;;;;;10.45;5.85;;;;;;;22.80;45.96;101211.44;5565919;32;34676;-60
2022/05/09 11:45:38;;;;;;;6.35;5.30;;;;;;;22.83;45.85;101196.31;5556074;31;33592;-60
2022/05/09 11:48:49;;;;;;;10.48;5.72;;;;;;;22.85;46.25;101189.37;5562750;32;34249;-59
2022/05/09 11:52:03;;;;;;;7.22;5.57;;;;;;;22.80;45.41;101200.50;5546485;32;33418;-60
2022/05/09 11:55:10;;;;;;;6.12;5.03;;;;;;;22.66;45.89;101198.12;5548628;32;33693;-60
2022/05/09 11:58:13;;;;;;;9.95;5.05;;;;;;;22.58;49.26;101207.22;5558229;32;33604;-59
2022/05/09 12:01:15;;;;;;;11.90;5.20;;;;;;;22.49;46.09;101210.09;5567753;32;33707;-60
2022/05/09 12:04:35;;;;;;;7.47;4.57;;;;;;;22.35;45.76;101211.53;5564866;32;33792;-60
2022/05/09 12:07:37;;;;;;;5.43;4.12;;;;;;;22.24;45.29;101222.91;5556581;32;33772;-60
2022/05/09 12:10:42;;;;;;;5.30;3.65;;;;;;;22.23;46.96;101218.59;5567002;32;33674;-60
2022/05/09 12:13:51;;;;;;;8.13;3.42;;;;;;;22.19;42.53;101216.87;5562097;32;34239;-58
2022/05/09 12:16:54;;;;;;;4.60;3.40;;;;;;;22.08;43.51;101221.13;5555884;32;33646;-60
2022/05/09 12:19:56;;;;;;;12.73;5.40;;;;;;;21.89;43.78;101211.53;5565554;32;33899;-59
2022/05/09 12:23:31;;;;;;;12.52;6.95;;;;;;;21.93;47.56;101207.00;5561812;32;34844;-59
2022/05/09 12:26:36;;;;;;;9.73;6.18;;;;;;;21.74;45.53;101206.72;5562587;32;33803;-60
2022/05/09 12:29:49;;;;;;;8.25;5.15;;;;;;;21.64;46.70;101218.84;5557054;32;34830;-59
2022/05/09 12:32:52;;;;;;;15.23;6.87;;;;;;;21.61;47.59;101224.97;5559111;32;33635;-59
2022/05/09 12:35:59;;;;;;;9.10;6.12;;;;;;;21.59;45.91;101227.25;5558759;32;33879;-59
2022/05/09 12:39:09;;;;;;;7.30;5.72;;;;;;;21.61;48.22;101233.13;5560318;32;34383;-59
2022/05/09 12:42:25;;;;;;;8.18;5.43;;;;;;;21.63;46.91;101219.19;5560556;32;33856;-59
2022/05/09 12:45:29;;;;;;;6.40;4.60;;;;;;;21.68;46.49;101232.59;5561931;32;34305;-59
2022/05/09 12:48:32;;;;;;;7.20;3.92;;;;;;;21.69;44.08;101236.91;5557561;32;33599;-59
2022/05/09 12:51:43;;;;;;;7.25;3.50;;;;;;;21.58;43.28;101231.88;5553595;32;34262;-59
2022/05/09 12:58:37;;;;;;;7.62;3.78;;;;;;;21.47;42.77;101222.50;5550599;32;33633;-59
2022/05/09 13:01:50;;;;;;;8.43;3.67;;;;;;;21.54;49.78;101220.03;5560763;32;34408;-60
2022/05/09 13:05:13;;;;;;;5.93;3.50;;;;;;;21.51;44.65;101219.91;5567580;32;34355;-60
2022/05/09 13:08:15;;;;;;;5.12;3.92;;;;;;;21.31;43.79;101210.56;5569952;32;34458;-60
2022/05/09 13:11:27;;;;;;;5.22;3.70;;;;;;;21.33;45.64;101220.03;5569810;32;34313;-59
2022/05/09 13:14:39;;;;;;;7.15;4.15;;;;;;;21.21;46.23;101219.16;5569698;32;34475;-60
2022/05/09 13:17:54;;;;;;;4.95;4.12;;;;;;;21.28;45.04;101214.75;5569289;32;33798;-59
2022/05/09 13:21:02;;;;;;;5.97;3.70;;;;;;;21.24;45.38;101213.81;5569711;32;33465;-59
2022/05/09 13:24:16;;;;;;;6.85;4.07;;;;;;;21.18;48.75;101204.25;5569222;32;34362;-60
2022/05/09 13:27:23;;;;;;;4.77;3.43;;;;;;;21.25;48.29;101199.06;5558614;31;34338;-59
2022/05/09 13:30:33;;;;;;;6.20;3.78;;;;;;;21.28;45.32;101194.88;5566253;32;33560;-59
2022/05/09 13:33:35;;;;;;;4.07;3.53;;;;;;;21.30;44.88;101187.16;5567850;32;33163;-59
2022/05/09 13:36:40;;;;;;;8.07;3.80;;;;;;;21.19;45.90;101196.84;5557967;32;34242;-60
2022/05/09 13:39:44;;;;;;;7.87;3.97;;;;;;;21.19;47.90;101189.50;5558011;32;33695;-59
2022/05/09 13:42:49;;;;;;;8.40;3.97;;;;;;;21.32;51.17;101184.88;5563321;32;33664;-59
2022/05/09 13:46:07;;;;;;;8.05;4.07;;;;;;;21.43;49.02;101191.56;5567562;32;33969;-59
2022/05/09 13:49:15;;;;;;;8.40;4.62;;;;;;;21.39;47.73;101185.19;5568239;32;32393;-60
2022/05/09 13:52:31;;;;;;;9.00;4.87;;;;;;;21.43;50.33;101179.87;5565206;32;33490;-59
2022/05/09 13:55:44;;;;;;;9.68;4.50;;;;;;;21.41;51.86;101177.47;5563756;32;33867;-59
2022/05/09 13:58:47;;;;;;;12.02;5.20;;;;;;;21.40;53.94;101177.81;5560336;32;33640;-59
2022/05/09 14:01:53;;;;;;;12.90;5.18;;;;;;;21.29;53.72;101171.91;5567207;32;33839;-59
2022/05/09 14:05:06;;;;;;;6.57;4.50;;;;;;;21.24;52.98;101170.19;5564549;32;34295;-60
2022/05/09 14:08:10;;;;;;;9.50;4.93;;;;;;;21.20;54.36;101184.84;5568469;32;33675;-59
2022/05/09 14:11:13;;;;;;;13.57;5.00;;;;;;;21.17;55.60;101171.88;5569463;32;34331;-59
2022/05/09 14:14:40;;;;;;;7.60;5.70;;;;;;;21.09;56.24;101166.16;5567925;32;33845;-59
2022/05/09 14:17:51;;;;;;;10.90;5.72;;;;;;;21.06;56.05;101166.81;5568272;32;34370;-60
2022/05/09 14:21:25;;;;;;;16.10;5.55;;;;;;;21.05;54.78;101167.91;5568807;32;33756;-60
2022/05/09 14:24:33;;;;;;;8.35;4.80;;;;;;;21.04;55.79;101165.53;5564763;32;34316;-60
2022/05/09 14:30:57;;;;;;;11.40;5.28;;;;;;;21.21;56.43;101170.06;5564684;32;34378;-59
2022/05/09 14:33:59;;;;;;;10.88;5.45;;;;;;;21.35;58.54;101173.34;5561537;32;34396;-60
2022/05/09 14:37:33;;;;;;;10.85;4.82;;;;;;;21.54;57.57;101170.13;5564137;32;34550;-60
2022/05/09 14:40:42;;;;;;;17.35;5.57;;;;;;;21.58;54.23;101160.13;5561214;32;34350;-59
2022/05/09 14:43:45;;;;;;;10.68;5.18;;;;;;;21.64;54.59;101158.00;5558741;32;34381;-60
2022/05/09 14:47:02;;;;;;;7.10;5.03;;;;;;;21.65;57.33;101148.69;5568281;31;33653;-60
2022/05/09 14:50:30;;;;;;;9.13;4.80;;;;;;;21.76;55.91;101155.31;5567948;32;33713;-60
2022/05/09 14:53:38;;;;;;;7.97;4.15;;;;;;;21.90;50.72;101149.56;5569189;32;34419;-60
2022/05/09 15:00:07;;;;;;;6.40;4.45;;;;;;;21.76;48.47;101142.47;5566674;32;33020;-59
2022/05/09 15:03:19;;;;;;;8.82;4.03;;;;;;;21.75;46.63;101145.53;5566316;32;33637;-59
2022/05/09 15:06:27;;;;;;;6.25;4.65;;;;;;;21.76;46.85;101150.66;5568811;32;33890;-59
2022/05/09 15:09:30;;;;;;;6.18;4.35;;;;;;;21.91;54.55;101149.22;5562757;32;33664;-59
2022/05/09 15:12:33;;;;;;;6.87;4.72;;;;;;;21.90;50.16;101141.38;5549416;32;33771;-59
2022/05/09 15:15:38;;;;;;;10.52;4.72;;;;;;;21.89;50.26;101151.50;5550813;32;33768;-59
2022/05/09 15:18:41;;;;;;;5.30;4.70;;;;;;;21.82;50.95;101143.06;5557034;32;33678;-60
2022/05/09 15:21:43;;;;;;;9.95;5.57;;;;;;;21.92;50.91;101148.09;5565529;32;33724;-60
2022/05/09 15:24:46;;;;;;;10.55;4.62;;;;;;;21.94;53.92;101151.25;5567598;32;33649;-59
2022/05/09 15:27:49;;;;;;;9.38;4.28;;;;;;;21.96;50.48;101150.94;5568560;32;33586;-60
2022/05/09 15:30:52;;;;;;;5.60;3.92;;;;;;;21.94;49.77;101156.72;5559675;32;33764;-60
2022/05/09 15:33:54;;;;;;;4.40;3.53;;;;;;;21.90;48.00;101160.47;5557869;32;34378;-60
2022/05/09 15:36:57;;;;;;;5.62;3.30;;;;;;;21.78;50.08;101162.03;5564519;32;34294;-60
2022/05/09 15:39:59;;;;;;;4.72;3.85;;;;;;;21.68;46.99;101158.94;5567609;32;34375;-59
2022/05/09 15:43:06;;;;;;;6.72;3.47;;;;;;;21.67;49.54;101165.53;5567292;32;33173;-59
2022/05/09 15:46:08;;;;;;;4.22;3.70;;;;;;;21.78;52.65;101170.22;5567788;32;34451;-60
2022/05/09 15:49:16;;;;;;;5.10;4.03;;;;;;;21.65;50.54;101171.31;5567835;32;33389;-59
2022/05/09 15:52:19;;;;;;;10.55;9.07;;;;;;;21.61;51.23;101177.78;5567182;32;34381;-60
